sensor_id;sensor_type;location;lat;lon;timestamp;pressure;altitude;pressure_sealevel;temperature;humidity
56912;BME280;42800;53.928;27.662;2023-05-01T00:00:43;98520.91;;;5.13;100.00
56912;BME280;42800;53.928;27.662;2023-05-01T00:03:09;98531.47;;;5.02;100.00
56912;BME280;42800;53.928;27.662;2023-05-01T00:05:35;98527.00;;;4.94;100.00
56912;BME280;42800;53.928;27.662;2023-05-01T00:08:01;98540.00;;;5.01;100.00
56912;BME280;42800;53.928;27.662;2023-05-01T00:10:28;98536.28;;;4.81;100.00
56912;BME280;42800;53.928;27.662;2023-05-01T00:12:54;98532.66;;;4.89;100.00
56912;BME280;42800;53.928;27.662;2023-05-01T00:15:20;98531.06;;;4.88;100.00
56912;BME280;42800;53.928;27.662;2023-05-01T00:17:46;98527.41;;;4.96;100.00
56912;BME280;42800;53.928;27.662;2023-05-01T00:20:12;98512.84;;;4.88;100.00
56912;BME280;42800;53.928;27.662;2023-05-01T00:22:38;98486.13;;;4.90;100.00
56912;BME280;42800;53.928;27.662;2023-05-01T00:25:05;98500.63;;;4.82;100.00
56912;BME280;42800;53.928;27.662;2023-05-01T00:27:32;98504.50;;;4.69;100.00
56912;BME280;42800;53.928;27.662;2023-05-01T00:29:58;98516.59;;;4.71;100.00
56912;BME280;42800;53.928;27.662;2023-05-01T00:32:24;98521.69;;;4.73;100.00
56912;BME280;42800;53.928;27.662;2023-05-01T00:34:50;98530.53;;;4.70;100.00
56912;BME280;42800;53.928;27.662;2023-05-01T00:37:16;98520.13;;;4.60;100.00
56912;BME280;42800;53.928;27.662;2023-05-01T00:39:42;98508.94;;;4.61;100.00
56912;BME280;42800;53.928;27.662;2023-05-01T00:42:08;98502.94;;;4.56;100.00
56912;BME280;42800;53.928;27.662;2023-05-01T00:44:35;98516.50;;;4.56;100.00
56912;BME280;42800;53.928;27.662;2023-05-01T00:47:01;98505.75;;;4.59;100.00
56912;BME280;42800;53.928;27.662;2023-05-01T00:49:28;98509.94;;;4.32;100.00
56912;BME280;42800;53.928;27.662;2023-05-01T00:51:54;98510.97;;;4.28;100.00
56912;BME280;42800;53.928;27.662;2023-05-01T00:54:20;98502.72;;;4.24;100.00
56912;BME280;42800;53.928;27.662;2023-05-01T00:56:47;98502.03;;;4.15;100.00
56912;BME280;42800;53.928;27.662;2023-05-01T00:59:14;98503.06;;;4.35;100.00
56912;BME280;42800;53.928;27.662;2023-05-01T01:01:41;98509.94;;;4.32;100.00
56912;BME280;42800;53.928;27.662;2023-05-01T01:04:07;98507.34;;;4.36;100.00
56912;BME280;42800;53.928;27.662;2023-05-01T01:06:38;98511.88;;;4.32;100.00
56912;BME280;42800;53.928;27.662;2023-05-01T01:09:15;98489.25;;;4.15;100.00
56912;BME280;42800;53.928;27.662;2023-05-01T01:11:52;98475.47;;;4.08;100.00
56912;BME280;42800;53.928;27.662;2023-05-01T01:14:27;98479.75;;;4.09;100.00
56912;BME280;42800;53.928;27.662;2023-05-01T01:17:02;98455.56;;;4.16;100.00
56912;BME280;42800;53.928;27.662;2023-05-01T01:19:48;98451.06;;;4.08;100.00
56912;BME280;42800;53.928;27.662;2023-05-01T01:22:25;98451.03;;;3.96;100.00
56912;BME280;42800;53.928;27.662;2023-05-01T01:25:21;98455.47;;;4.00;100.00
56912;BME280;42800;53.928;27.662;2023-05-01T01:28:09;98436.94;;;4.03;100.00
56912;BME280;42800;53.928;27.662;2023-05-01T01:31:02;98442.56;;;3.85;100.00
56912;BME280;42800;53.928;27.662;2023-05-01T01:33:49;98429.25;;;3.92;100.00
56912;BME280;42800;53.928;27.662;2023-05-01T01:36:22;98428.44;;;3.92;100.00
56912;BME280;42800;53.928;27.662;2023-05-01T01:38:55;98418.97;;;3.98;100.00
56912;BME280;42800;53.928;27.662;2023-05-01T01:41:25;98434.44;;;3.97;100.00
56912;BME280;42800;53.928;27.662;2023-05-01T01:44:00;98416.91;;;3.83;100.00
56912;BME280;42800;53.928;27.662;2023-05-01T01:46:29;98408.00;;;3.82;100.00
56912;BME280;42800;53.928;27.662;2023-05-01T01:49:02;98414.56;;;3.81;100.00
56912;BME280;42800;53.928;27.662;2023-05-01T01:51:31;98408.78;;;3.83;100.00
56912;BME280;42800;53.928;27.662;2023-05-01T01:53:57;98409.81;;;3.78;100.00
56912;BME280;42800;53.928;27.662;2023-05-01T01:56:25;98420.19;;;3.76;100.00
56912;BME280;42800;53.928;27.662;2023-05-01T01:58:54;98417.47;;;3.76;100.00
56912;BME280;42800;53.928;27.662;2023-05-01T02:01:22;98406.19;;;3.62;100.00
56912;BME280;42800;53.928;27.662;2023-05-01T02:03:48;98381.31;;;3.60;100.00
56912;BME280;42800;53.928;27.662;2023-05-01T02:06:16;98370.38;;;3.56;100.00
56912;BME280;42800;53.928;27.662;2023-05-01T02:08:43;98373.63;;;3.49;100.00
56912;BME280;42800;53.928;27.662;2023-05-01T02:11:12;98385.94;;;3.59;100.00
56912;BME280;42800;53.928;27.662;2023-05-01T02:13:40;98399.81;;;3.45;100.00
56912;BME280;42800;53.928;27.662;2023-05-01T02:16:06;98389.88;;;3.49;100.00
56912;BME280;42800;53.928;27.662;2023-05-01T02:18:33;98382.09;;;3.48;100.00
56912;BME280;42800;53.928;27.662;2023-05-01T02:21:02;98382.09;;;3.36;100.00
56912;BME280;42800;53.928;27.662;2023-05-01T02:23:30;98376.56;;;3.44;100.00
56912;BME280;42800;53.928;27.662;2023-05-01T02:25:59;98385.13;;;3.46;100.00
56912;BME280;42800;53.928;27.662;2023-05-01T02:28:28;98384.41;;;3.13;100.00
56912;BME280;42800;53.928;27.662;2023-05-01T02:30:54;98374.19;;;3.30;100.00
56912;BME280;42800;53.928;27.662;2023-05-01T02:33:21;98388.50;;;3.31;100.00
56912;BME280;42800;53.928;27.662;2023-05-01T02:35:47;98379.50;;;3.39;100.00
56912;BME280;42800;53.928;27.662;2023-05-01T02:38:14;98382.97;;;3.40;100.00
56912;BME280;42800;53.928;27.662;2023-05-01T02:40:44;98399.78;;;3.33;100.00
56912;BME280;42800;53.928;27.662;2023-05-01T02:43:12;98399.78;;;3.21;100.00
56912;BME280;42800;53.928;27.662;2023-05-01T02:45:41;98399.72;;;3.42;100.00
56912;BME280;42800;53.928;27.662;2023-05-01T02:48:09;98404.53;;;3.36;100.00
56912;BME280;42800;53.928;27.662;2023-05-01T02:50:38;98404.22;;;3.38;100.00
56912;BME280;42800;53.928;27.662;2023-05-01T02:53:05;98408.81;;;3.25;100.00
56912;BME280;42800;53.928;27.662;2023-05-01T02:55:32;98408.75;;;3.34;100.00
56912;BME280;42800;53.928;27.662;2023-05-01T02:57:58;98416.41;;;3.32;100.00
56912;BME280;42800;53.928;27.662;2023-05-01T03:00:24;98417.72;;;3.25;100.00
56912;BME280;42800;53.928;27.662;2023-05-01T03:02:50;98418.44;;;3.35;100.00
56912;BME280;42800;53.928;27.662;2023-05-01T03:05:16;98413.75;;;3.11;100.00
56912;BME280;42800;53.928;27.662;2023-05-01T03:07:44;98410.28;;;3.22;100.00
56912;BME280;42800;53.928;27.662;2023-05-01T03:10:10;98405.09;;;3.29;100.00
56912;BME280;42800;53.928;27.662;2023-05-01T03:12:36;98420.03;;;3.48;100.00
56912;BME280;42800;53.928;27.662;2023-05-01T03:15:04;98432.41;;;3.82;100.00
56912;BME280;42800;53.928;27.662;2023-05-01T03:17:30;98487.56;;;4.47;100.00
56912;BME280;42800;53.928;27.662;2023-05-01T03:19:56;98552.34;;;5.26;100.00
56912;BME280;42800;53.928;27.662;2023-05-01T03:22:22;98646.38;;;5.68;100.00
56912;BME280;42800;53.928;27.662;2023-05-01T03:24:47;98726.00;;;5.93;100.00
56912;BME280;42800;53.928;27.662;2023-05-01T03:27:15;98788.66;;;6.77;100.00
56912;BME280;42800;53.928;27.662;2023-05-01T03:29:41;98825.31;;;6.51;100.00
56912;BME280;42800;53.928;27.662;2023-05-01T03:32:08;98850.97;;;7.06;100.00
56912;BME280;42800;53.928;27.662;2023-05-01T03:34:33;98888.13;;;7.59;100.00
56912;BME280;42800;53.928;27.662;2023-05-01T03:36:59;98913.84;;;7.73;100.00
56912;BME280;42800;53.928;27.662;2023-05-01T03:39:25;98923.00;;;7.81;100.00
56912;BME280;42800;53.928;27.662;2023-05-01T03:41:51;98943.22;;;8.28;100.00
56912;BME280;42800;53.928;27.662;2023-05-01T03:44:17;98962.34;;;8.12;100.00
56912;BME280;42800;53.928;27.662;2023-05-01T03:46:43;98980.16;;;8.72;100.00
56912;BME280;42800;53.928;27.662;2023-05-01T03:49:09;98999.41;;;8.60;100.00
56912;BME280;42800;53.928;27.662;2023-05-01T03:51:35;99002.50;;;9.33;100.00
56912;BME280;42800;53.928;27.662;2023-05-01T03:54:01;99013.13;;;9.54;100.00
56912;BME280;42800;53.928;27.662;2023-05-01T03:56:27;99028.25;;;9.90;100.00
56912;BME280;42800;53.928;27.662;2023-05-01T03:58:53;99032.97;;;9.70;99.03
56912;BME280;42800;53.928;27.662;2023-05-01T04:01:19;99036.00;;;9.46;99.43
56912;BME280;42800;53.928;27.662;2023-05-01T04:03:45;99039.91;;;9.64;96.93
56912;BME280;42800;53.928;27.662;2023-05-01T04:06:13;99049.97;;;10.02;95.89
56912;BME280;42800;53.928;27.662;2023-05-01T04:08:39;99066.41;;;10.02;94.32
56912;BME280;42800;53.928;27.662;2023-05-01T04:11:05;99048.50;;;10.51;93.51
56912;BME280;42800;53.928;27.662;2023-05-01T04:13:31;99060.38;;;10.85;89.76
56912;BME280;42800;53.928;27.662;2023-05-01T04:15:57;99076.56;;;10.67;87.07
56912;BME280;42800;53.928;27.662;2023-05-01T04:18:24;99066.47;;;10.48;90.15
56912;BME280;42800;53.928;27.662;2023-05-01T04:20:50;99068.91;;;10.53;86.62
56912;BME280;42800;53.928;27.662;2023-05-01T04:23:17;99083.25;;;11.23;84.87
56912;BME280;42800;53.928;27.662;2023-05-01T04:25:43;99091.88;;;11.51;82.39
56912;BME280;42800;53.928;27.662;2023-05-01T04:28:10;99091.84;;;11.82;80.85
56912;BME280;42800;53.928;27.662;2023-05-01T04:30:36;99092.78;;;11.63;79.92
56912;BME280;42800;53.928;27.662;2023-05-01T04:33:22;99099.22;;;12.04;79.59
56912;BME280;42800;53.928;27.662;2023-05-01T04:35:48;99095.53;;;11.32;83.50
56912;BME280;42800;53.928;27.662;2023-05-01T04:38:14;99098.09;;;11.78;80.79
56912;BME280;42800;53.928;27.662;2023-05-01T04:40:41;99097.03;;;12.20;78.58
56912;BME280;42800;53.928;27.662;2023-05-01T04:43:06;99109.28;;;12.71;75.42
56912;BME280;42800;53.928;27.662;2023-05-01T04:45:32;99109.50;;;12.52;74.89
56912;BME280;42800;53.928;27.662;2023-05-01T04:47:58;99111.13;;;13.08;74.26
56912;BME280;42800;53.928;27.662;2023-05-01T04:50:24;99121.66;;;12.99;72.64
56912;BME280;42800;53.928;27.662;2023-05-01T04:52:51;99125.13;;;13.40;71.19
56912;BME280;42800;53.928;27.662;2023-05-01T04:55:17;99128.00;;;13.65;70.68
56912;BME280;42800;53.928;27.662;2023-05-01T04:57:43;99127.75;;;14.02;69.79
56912;BME280;42800;53.928;27.662;2023-05-01T05:00:11;99132.84;;;13.89;68.68
56912;BME280;42800;53.928;27.662;2023-05-01T05:02:37;99136.47;;;12.80;68.61
56912;BME280;42800;53.928;27.662;2023-05-01T05:05:03;99132.44;;;13.87;68.06
56912;BME280;42800;53.928;27.662;2023-05-01T05:07:29;99132.09;;;14.03;67.50
56912;BME280;42800;53.928;27.662;2023-05-01T05:09:55;99139.72;;;13.51;68.40
56912;BME280;42800;53.928;27.662;2023-05-01T05:12:21;99132.41;;;13.80;67.93
56912;BME280;42800;53.928;27.662;2023-05-01T05:14:47;99140.28;;;13.85;67.66
56912;BME280;42800;53.928;27.662;2023-05-01T05:17:21;99142.94;;;13.64;66.87
56912;BME280;42800;53.928;27.662;2023-05-01T05:19:47;99143.88;;;13.93;67.26
56912;BME280;42800;53.928;27.662;2023-05-01T05:22:13;99138.28;;;13.79;67.51
56912;BME280;42800;53.928;27.662;2023-05-01T05:24:39;99144.06;;;12.97;66.02
56912;BME280;42800;53.928;27.662;2023-05-01T05:27:05;99138.94;;;12.99;69.51
56912;BME280;42800;53.928;27.662;2023-05-01T05:29:31;99145.09;;;12.82;70.16
56912;BME280;42800;53.928;27.662;2023-05-01T05:31:57;99143.16;;;12.82;68.50
56912;BME280;42800;53.928;27.662;2023-05-01T05:34:24;99153.09;;;13.53;68.25
56912;BME280;42800;53.928;27.662;2023-05-01T05:36:50;99158.94;;;13.37;67.40
56912;BME280;42800;53.928;27.662;2023-05-01T05:39:16;99155.59;;;13.76;66.18
56912;BME280;42800;53.928;27.662;2023-05-01T05:41:42;99159.38;;;14.44;64.77
56912;BME280;42800;53.928;27.662;2023-05-01T05:44:08;99154.75;;;14.91;62.73
56912;BME280;42800;53.928;27.662;2023-05-01T05:46:34;99155.53;;;14.81;61.10
56912;BME280;42800;53.928;27.662;2023-05-01T05:49:00;99158.28;;;14.67;61.54
56912;BME280;42800;53.928;27.662;2023-05-01T05:51:26;99165.34;;;15.53;60.04
56912;BME280;42800;53.928;27.662;2023-05-01T05:53:52;99169.25;;;15.74;58.73
56912;BME280;42800;53.928;27.662;2023-05-01T05:56:18;99166.94;;;16.46;58.33
56912;BME280;42800;53.928;27.662;2023-05-01T05:58:44;99166.69;;;16.26;57.50
56912;BME280;42800;53.928;27.662;2023-05-01T06:01:10;99177.00;;;16.15;57.57
56912;BME280;42800;53.928;27.662;2023-05-01T06:03:36;99170.75;;;15.96;58.58
56912;BME280;42800;53.928;27.662;2023-05-01T06:06:02;99175.41;;;16.17;58.01
56912;BME280;42800;53.928;27.662;2023-05-01T06:08:29;99187.28;;;16.11;57.01
56912;BME280;42800;53.928;27.662;2023-05-01T06:10:55;99181.31;;;16.23;56.84
56912;BME280;42800;53.928;27.662;2023-05-01T06:13:23;99178.38;;;15.42;58.27
56912;BME280;42800;53.928;27.662;2023-05-01T06:15:49;99189.72;;;15.98;57.58
56912;BME280;42800;53.928;27.662;2023-05-01T06:18:15;99190.59;;;15.63;58.29
56912;BME280;42800;53.928;27.662;2023-05-01T06:20:41;99192.19;;;15.28;58.58
56912;BME280;42800;53.928;27.662;2023-05-01T06:23:07;99194.56;;;15.33;58.32
56912;BME280;42800;53.928;27.662;2023-05-01T06:25:34;99202.81;;;15.62;57.87
56912;BME280;42800;53.928;27.662;2023-05-01T06:28:00;99188.81;;;16.26;57.05
56912;BME280;42800;53.928;27.662;2023-05-01T06:30:28;99194.94;;;16.59;55.43
56912;BME280;42800;53.928;27.662;2023-05-01T06:32:54;99200.72;;;16.89;55.69
56912;BME280;42800;53.928;27.662;2023-05-01T06:35:20;99196.00;;;16.86;55.11
56912;BME280;42800;53.928;27.662;2023-05-01T06:37:45;99199.88;;;16.92;53.75
56912;BME280;42800;53.928;27.662;2023-05-01T06:40:11;99199.78;;;17.10;53.66
56912;BME280;42800;53.928;27.662;2023-05-01T06:42:38;99202.38;;;16.69;53.33
56912;BME280;42800;53.928;27.662;2023-05-01T06:45:06;99202.44;;;17.21;53.53
56912;BME280;42800;53.928;27.662;2023-05-01T06:47:32;99201.34;;;17.11;53.23
56912;BME280;42800;53.928;27.662;2023-05-01T06:49:58;99208.69;;;17.77;53.03
56912;BME280;42800;53.928;27.662;2023-05-01T06:52:24;99209.50;;;18.43;52.24
56912;BME280;42800;53.928;27.662;2023-05-01T06:54:50;99212.91;;;18.54;51.89
56912;BME280;42800;53.928;27.662;2023-05-01T06:57:16;99213.25;;;17.95;52.51
56912;BME280;42800;53.928;27.662;2023-05-01T06:59:42;99219.25;;;17.90;51.57
56912;BME280;42800;53.928;27.662;2023-05-01T07:02:08;99220.28;;;18.03;51.70
56912;BME280;42800;53.928;27.662;2023-05-01T07:04:34;99221.47;;;18.02;52.57
56912;BME280;42800;53.928;27.662;2023-05-01T07:07:00;99223.56;;;17.49;52.60
56912;BME280;42800;53.928;27.662;2023-05-01T07:09:27;99221.78;;;16.65;53.25
56912;BME280;42800;53.928;27.662;2023-05-01T07:11:53;99216.66;;;16.67;53.53
56912;BME280;42800;53.928;27.662;2023-05-01T07:14:21;99228.00;;;16.91;53.62
56912;BME280;42800;53.928;27.662;2023-05-01T07:16:47;99223.94;;;17.06;53.13
56912;BME280;42800;53.928;27.662;2023-05-01T07:19:13;99222.53;;;16.80;53.72
56912;BME280;42800;53.928;27.662;2023-05-01T07:21:40;99231.03;;;17.56;52.54
56912;BME280;42800;53.928;27.662;2023-05-01T07:24:06;99230.34;;;17.90;51.92
56912;BME280;42800;53.928;27.662;2023-05-01T07:26:32;99219.97;;;18.28;50.72
56912;BME280;42800;53.928;27.662;2023-05-01T07:28:58;99231.50;;;18.57;49.75
56912;BME280;42800;53.928;27.662;2023-05-01T07:31:24;99239.06;;;18.87;49.84
56912;BME280;42800;53.928;27.662;2023-05-01T07:33:50;99233.06;;;18.27;49.91
56912;BME280;42800;53.928;27.662;2023-05-01T07:36:17;99230.66;;;17.54;51.11
56912;BME280;42800;53.928;27.662;2023-05-01T07:38:44;99240.22;;;17.91;50.38
56912;BME280;42800;53.928;27.662;2023-05-01T07:41:10;99239.25;;;18.39;49.89
56912;BME280;42800;53.928;27.662;2023-05-01T07:43:36;99231.72;;;18.39;49.01
56912;BME280;42800;53.928;27.662;2023-05-01T07:46:02;99244.03;;;18.69;49.07
56912;BME280;42800;53.928;27.662;2023-05-01T07:48:28;99239.34;;;18.31;49.24
56912;BME280;42800;53.928;27.662;2023-05-01T07:50:55;99242.16;;;18.93;48.40
56912;BME280;42800;53.928;27.662;2023-05-01T07:53:21;99243.47;;;18.20;48.88
56912;BME280;42800;53.928;27.662;2023-05-01T07:55:47;99238.63;;;18.27;49.63
56912;BME280;42800;53.928;27.662;2023-05-01T07:58:13;99240.72;;;18.81;49.05
56912;BME280;42800;53.928;27.662;2023-05-01T08:00:39;99245.72;;;18.93;49.07
56912;BME280;42800;53.928;27.662;2023-05-01T08:03:05;99248.41;;;19.24;50.00
56912;BME280;42800;53.928;27.662;2023-05-01T08:05:31;99248.22;;;19.58;49.09
56912;BME280;42800;53.928;27.662;2023-05-01T08:07:57;99250.31;;;19.78;49.07
56912;BME280;42800;53.928;27.662;2023-05-01T08:10:23;99229.59;;;19.08;49.08
56912;BME280;42800;53.928;27.662;2023-05-01T08:12:50;99248.22;;;19.58;48.92
56912;BME280;42800;53.928;27.662;2023-05-01T08:15:16;99244.16;;;19.66;47.95
56912;BME280;42800;53.928;27.662;2023-05-01T08:17:42;99251.00;;;19.58;48.48
56912;BME280;42800;53.928;27.662;2023-05-01T08:20:09;99243.00;;;18.90;47.66
56912;BME280;42800;53.928;27.662;2023-05-01T08:22:35;99234.50;;;18.70;47.55
56912;BME280;42800;53.928;27.662;2023-05-01T08:25:02;99240.59;;;19.15;47.60
56912;BME280;42800;53.928;27.662;2023-05-01T08:27:28;99242.38;;;19.02;47.27
56912;BME280;42800;53.928;27.662;2023-05-01T08:29:54;99247.16;;;19.75;47.10
56912;BME280;42800;53.928;27.662;2023-05-01T08:32:20;99236.84;;;20.36;46.78
56912;BME280;42800;53.928;27.662;2023-05-01T08:34:46;99237.41;;;20.47;45.99
56912;BME280;42800;53.928;27.662;2023-05-01T08:37:12;99245.84;;;19.84;45.47
56912;BME280;42800;53.928;27.662;2023-05-01T08:39:38;99244.41;;;19.25;45.91
56912;BME280;42800;53.928;27.662;2023-05-01T08:42:05;99243.63;;;18.40;46.64
56912;BME280;42800;53.928;27.662;2023-05-01T08:44:32;99245.63;;;19.47;46.30
56912;BME280;42800;53.928;27.662;2023-05-01T08:47:09;99247.81;;;19.13;46.12
56912;BME280;42800;53.928;27.662;2023-05-01T08:49:36;99251.44;;;19.33;45.54
56912;BME280;42800;53.928;27.662;2023-05-01T08:52:05;99251.78;;;19.35;45.76
56912;BME280;42800;53.928;27.662;2023-05-01T08:54:32;99256.16;;;19.36;45.56
56912;BME280;42800;53.928;27.662;2023-05-01T08:57:00;99246.47;;;18.32;47.17
56912;BME280;42800;53.928;27.662;2023-05-01T08:59:29;99248.56;;;17.91;47.72
56912;BME280;42800;53.928;27.662;2023-05-01T09:01:59;99249.41;;;17.35;47.45
56912;BME280;42800;53.928;27.662;2023-05-01T09:04:28;99257.19;;;17.06;48.09
56912;BME280;42800;53.928;27.662;2023-05-01T09:06:57;99253.09;;;18.42;47.23
56912;BME280;42800;53.928;27.662;2023-05-01T09:09:25;99258.69;;;19.27;46.95
56912;BME280;42800;53.928;27.662;2023-05-01T09:11:51;99245.59;;;19.51;46.58
56912;BME280;42800;53.928;27.662;2023-05-01T09:14:17;99260.25;;;18.74;46.25
56912;BME280;42800;53.928;27.662;2023-05-01T09:16:44;99253.25;;;18.62;47.54
56912;BME280;42800;53.928;27.662;2023-05-01T09:19:10;99255.09;;;19.03;46.72
56912;BME280;42800;53.928;27.662;2023-05-01T09:21:36;99250.78;;;18.98;47.14
56912;BME280;42800;53.928;27.662;2023-05-01T09:24:02;99252.88;;;18.29;47.66
56912;BME280;42800;53.928;27.662;2023-05-01T09:26:28;99246.66;;;19.10;46.05
56912;BME280;42800;53.928;27.662;2023-05-01T09:28:53;99253.09;;;19.78;45.37
56912;BME280;42800;53.928;27.662;2023-05-01T09:31:23;99251.97;;;19.48;46.92
56912;BME280;42800;53.928;27.662;2023-05-01T09:33:52;99259.38;;;19.82;46.07
56912;BME280;42800;53.928;27.662;2023-05-01T09:36:22;99259.38;;;19.82;45.97
56912;BME280;42800;53.928;27.662;2023-05-01T09:38:48;99265.50;;;19.22;45.89
56912;BME280;42800;53.928;27.662;2023-05-01T09:41:14;99252.66;;;19.05;45.82
56912;BME280;42800;53.928;27.662;2023-05-01T09:43:40;99246.53;;;18.90;44.60
56912;BME280;42800;53.928;27.662;2023-05-01T09:46:09;99258.66;;;18.76;44.28
56912;BME280;42800;53.928;27.662;2023-05-01T09:48:36;99255.81;;;18.46;44.24
56912;BME280;42800;53.928;27.662;2023-05-01T09:51:20;99256.53;;;19.11;44.58
56912;BME280;42800;53.928;27.662;2023-05-01T09:53:46;99250.38;;;18.73;43.51
56912;BME280;42800;53.928;27.662;2023-05-01T09:56:12;99256.41;;;18.33;44.93
56912;BME280;42800;53.928;27.662;2023-05-01T09:58:39;99246.75;;;16.58;46.60
56912;BME280;42800;53.928;27.662;2023-05-01T10:01:05;99254.19;;;16.68;47.81
56912;BME280;42800;53.928;27.662;2023-05-01T10:03:33;99255.34;;;17.37;47.39
56912;BME280;42800;53.928;27.662;2023-05-01T10:05:59;99247.50;;;17.74;47.73
56912;BME280;42800;53.928;27.662;2023-05-01T10:08:43;99257.75;;;17.32;47.44
56912;BME280;42800;53.928;27.662;2023-05-01T10:11:09;99255.22;;;17.97;47.35
56912;BME280;42800;53.928;27.662;2023-05-01T10:13:35;99242.66;;;17.85;46.88
56912;BME280;42800;53.928;27.662;2023-05-01T10:16:01;99244.66;;;17.84;47.45
56912;BME280;42800;53.928;27.662;2023-05-01T10:18:32;99248.84;;;18.00;47.84
56912;BME280;42800;53.928;27.662;2023-05-01T10:20:58;99259.72;;;18.52;47.47
56912;BME280;42800;53.928;27.662;2023-05-01T10:23:24;99259.22;;;18.61;47.31
56912;BME280;42800;53.928;27.662;2023-05-01T10:25:51;99257.03;;;17.76;46.63
56912;BME280;42800;53.928;27.662;2023-05-01T10:28:19;99252.91;;;18.26;46.92
56912;BME280;42800;53.928;27.662;2023-05-01T10:30:45;99240.91;;;17.60;47.49
56912;BME280;42800;53.928;27.662;2023-05-01T10:33:12;99246.56;;;18.25;47.09
56912;BME280;42800;53.928;27.662;2023-05-01T10:35:39;99247.19;;;18.06;47.10
56912;BME280;42800;53.928;27.662;2023-05-01T10:38:10;99248.38;;;18.05;46.85
56912;BME280;42800;53.928;27.662;2023-05-01T10:40:46;99252.72;;;18.06;46.78
56912;BME280;42800;53.928;27.662;2023-05-01T10:43:15;99245.59;;;17.67;46.38
56912;BME280;42800;53.928;27.662;2023-05-01T10:45:42;99241.66;;;17.64;46.04
56912;BME280;42800;53.928;27.662;2023-05-01T10:48:08;99241.88;;;17.84;46.84
56912;BME280;42800;53.928;27.662;2023-05-01T10:50:34;99246.00;;;18.07;47.60
56912;BME280;42800;53.928;27.662;2023-05-01T10:53:16;99242.09;;;18.01;47.84
56912;BME280;42800;53.928;27.662;2023-05-01T10:55:43;99241.06;;;17.87;47.99
56912;BME280;42800;53.928;27.662;2023-05-01T10:58:09;99245.63;;;17.15;47.49
56912;BME280;42800;53.928;27.662;2023-05-01T11:00:36;99251.06;;;16.66;47.97
56912;BME280;42800;53.928;27.662;2023-05-01T11:03:35;99248.03;;;16.43;47.38
56912;BME280;42800;53.928;27.662;2023-05-01T11:06:04;99252.56;;;15.47;47.86
56912;BME280;42800;53.928;27.662;2023-05-01T11:08:31;99244.69;;;15.21;47.61
56912;BME280;42800;53.928;27.662;2023-05-01T11:14:02;99242.28;;;14.87;48.71
56912;BME280;42800;53.928;27.662;2023-05-01T11:16:43;99233.81;;;14.33;51.29
56912;BME280;42800;53.928;27.662;2023-05-01T11:19:43;99231.09;;;14.48;51.95
56912;BME280;42800;53.928;27.662;2023-05-01T11:22:12;99239.06;;;14.60;51.20
56912;BME280;42800;53.928;27.662;2023-05-01T11:24:38;99237.06;;;14.53;51.50
56912;BME280;42800;53.928;27.662;2023-05-01T11:27:05;99228.25;;;14.23;52.43
56912;BME280;42800;53.928;27.662;2023-05-01T11:29:31;99229.78;;;14.09;51.69
56912;BME280;42800;53.928;27.662;2023-05-01T11:31:58;99226.56;;;13.93;51.99
56912;BME280;42800;53.928;27.662;2023-05-01T11:34:24;99232.06;;;13.89;53.50
56912;BME280;42800;53.928;27.662;2023-05-01T11:36:51;99229.56;;;13.67;53.00
56912;BME280;42800;53.928;27.662;2023-05-01T11:39:17;99215.19;;;14.05;52.68
56912;BME280;42800;53.928;27.662;2023-05-01T11:41:44;99227.44;;;14.15;52.08
56912;BME280;42800;53.928;27.662;2023-05-01T11:44:11;99224.16;;;13.88;51.79
56912;BME280;42800;53.928;27.662;2023-05-01T11:46:37;99219.06;;;13.94;51.98
56912;BME280;42800;53.928;27.662;2023-05-01T11:49:04;99232.13;;;13.41;52.28
56912;BME280;42800;53.928;27.662;2023-05-01T11:51:30;99223.53;;;13.50;52.38
56912;BME280;42800;53.928;27.662;2023-05-01T11:53:57;99221.59;;;13.54;52.79
56912;BME280;42800;53.928;27.662;2023-05-01T11:56:24;99220.72;;;13.39;51.36
56912;BME280;42800;53.928;27.662;2023-05-01T11:58:50;99217.69;;;13.11;52.08
56912;BME280;42800;53.928;27.662;2023-05-01T12:01:16;99208.34;;;13.23;52.33
56912;BME280;42800;53.928;27.662;2023-05-01T12:03:43;99215.41;;;13.75;53.52
56912;BME280;42800;53.928;27.662;2023-05-01T12:06:10;99211.06;;;13.67;53.34
56912;BME280;42800;53.928;27.662;2023-05-01T12:08:41;99212.78;;;13.97;52.27
56912;BME280;42800;53.928;27.662;2023-05-01T12:11:08;99207.69;;;14.02;51.95
56912;BME280;42800;53.928;27.662;2023-05-01T12:13:34;99215.88;;;13.84;52.62
56912;BME280;42800;53.928;27.662;2023-05-01T12:16:00;99209.50;;;13.70;52.94
56912;BME280;42800;53.928;27.662;2023-05-01T12:18:27;99208.53;;;13.44;54.37
56912;BME280;42800;53.928;27.662;2023-05-01T12:20:54;99215.34;;;13.61;53.62
56912;BME280;42800;53.928;27.662;2023-05-01T12:23:30;99208.53;;;14.13;52.07
56912;BME280;42800;53.928;27.662;2023-05-01T12:25:56;99208.44;;;13.96;51.86
56912;BME280;42800;53.928;27.662;2023-05-01T12:28:22;99203.69;;;13.93;51.98
56912;BME280;42800;53.928;27.662;2023-05-01T12:30:49;99207.78;;;14.20;51.96
56912;BME280;42800;53.928;27.662;2023-05-01T12:33:16;99209.34;;;14.21;51.90
56912;BME280;42800;53.928;27.662;2023-05-01T12:35:44;99217.03;;;13.76;52.15
56912;BME280;42800;53.928;27.662;2023-05-01T12:38:12;99218.84;;;13.54;52.09
56912;BME280;42800;53.928;27.662;2023-05-01T12:40:40;99214.19;;;13.65;51.48
56912;BME280;42800;53.928;27.662;2023-05-01T12:43:14;99218.84;;;13.54;52.44
56912;BME280;42800;53.928;27.662;2023-05-01T12:45:41;99218.50;;;13.63;52.62
56912;BME280;42800;53.928;27.662;2023-05-01T12:48:13;99214.56;;;13.60;52.72
56912;BME280;42800;53.928;27.662;2023-05-01T12:50:40;99207.16;;;13.20;53.21
56912;BME280;42800;53.928;27.662;2023-05-01T12:53:06;99213.81;;;13.71;53.33
56912;BME280;42800;53.928;27.662;2023-05-01T12:55:45;99213.00;;;13.63;53.40